Time;durP1;ratioP1;P1;durP2;ratioP2;P2;SDS_P1;SDS_P2;PMS_P1;PMS_P2;Temp;Humidity;BMP_temperature;BMP_pressure;BME280_temperature;BME280_humidity;BME280_pressure;Samples;Min_cycle;Max_cycle;Signal;HPM_P1;HPM_P2
2023/04/02 00:00:21;;;;;;;5.80;1.17;;;17.10;99.90;;;;;;4944695;29;20217;-83
2023/04/02 00:03:02;;;;;;;5.50;1.10;;;17.10;99.90;;;;;;4956611;29;20201;-84
2023/04/02 00:05:55;;;;;;;5.75;1.10;;;17.20;99.90;;;;;;4956787;29;20204;-83
2023/04/02 00:08:31;;;;;;;6.80;1.17;;;17.30;99.90;;;;;;4951610;29;20308;-81
2023/04/02 00:11:05;;;;;;;3.92;1.05;;;17.30;99.90;;;;;;4956136;29;20579;-83
2023/04/02 00:13:39;;;;;;;9.02;1.23;;;17.40;99.90;;;;;;4956570;29;20197;-79
2023/04/02 00:16:13;;;;;;;4.50;1.00;;;17.50;99.90;;;;;;4956203;29;20220;-80
2023/04/02 00:18:51;;;;;;;10.00;1.20;;;17.50;99.90;;;;;;4956136;29;20212;-76
2023/04/02 00:21:30;;;;;;;6.13;1.30;;;17.50;99.90;;;;;;4955008;29;20200;-76
2023/04/02 00:24:04;;;;;;;12.90;7.10;;;17.60;99.90;;;;;;4955808;29;20204;-82
2023/04/02 00:26:36;;;;;;;44.30;30.73;;;17.60;99.90;;;;;;4955920;29;20200;-80
2023/04/02 00:29:08;;;;;;;13.98;6.95;;;17.60;99.90;;;;;;4956062;29;20209;-81
2023/04/02 00:31:43;;;;;;;22.52;15.05;;;17.60;99.90;;;;;;4956135;29;20205;-79
2023/04/02 00:34:22;;;;;;;13.93;7.95;;;17.60;99.90;;;;;;4944328;29;20208;-77
2023/04/02 00:36:55;;;;;;;9.57;4.80;;;17.60;99.90;;;;;;4955472;29;20236;-80
2023/04/02 00:39:29;;;;;;;7.50;4.28;;;17.60;99.90;;;;;;4956036;29;20197;-76
2023/04/02 00:42:05;;;;;;;6.20;1.75;;;17.70;99.90;;;;;;4952340;28;20566;-80
2023/04/02 00:44:41;;;;;;;5.25;1.33;;;17.80;99.90;;;;;;4954705;29;20205;-77
2023/04/02 00:47:20;;;;;;;4.22;1.58;;;17.90;99.90;;;;;;4955647;29;20204;-80
2023/04/02 00:49:57;;;;;;;5.40;1.20;;;18.00;99.90;;;;;;4950676;29;20205;-77
2023/04/02 00:52:32;;;;;;;8.27;1.27;;;18.10;99.90;;;;;;4955757;28;20197;-75
2023/04/02 00:55:11;;;;;;;5.68;1.30;;;18.10;99.90;;;;;;4955358;29;20665;-77
2023/04/02 00:57:45;;;;;;;4.78;1.20;;;18.20;99.90;;;;;;4954950;28;20755;-79
2023/04/02 01:00:25;;;;;;;3.88;0.80;;;18.20;99.90;;;;;;4946290;28;20204;-77
2023/04/02 01:03:36;;;;;;;2.85;1.00;;;18.30;99.90;;;;;;4955030;28;20197;-76
2023/04/02 01:06:11;;;;;;;7.40;1.38;;;18.30;99.90;;;;;;4859402;29;20287;-76
2023/04/02 01:09:01;;;;;;;9.23;1.35;;;18.20;99.90;;;;;;4859080;29;20196;-77
2023/04/02 01:11:55;;;;;;;8.95;1.20;;;18.10;99.90;;;;;;4922921;29;20208;-78
2023/04/02 01:14:39;;;;;;;6.53;0.95;;;18.00;99.90;;;;;;4954824;29;20208;-76
2023/04/02 01:17:25;;;;;;;4.95;0.98;;;17.90;99.90;;;;;;4955539;29;20220;-77
2023/04/02 01:20:31;;;;;;;4.72;1.83;;;17.70;99.90;;;;;;4955194;29;20205;-76
2023/04/02 01:23:08;;;;;;;5.88;1.52;;;17.90;99.90;;;;;;4944726;29;20205;-77
2023/04/02 01:25:46;;;;;;;8.82;1.45;;;18.00;99.90;;;;;;4954646;28;20252;-76
2023/04/02 01:28:23;;;;;;;7.80;1.10;;;18.00;99.90;;;;;;4954825;29;20208;-76
2023/04/02 01:31:00;;;;;;;8.45;1.00;;;17.90;99.90;;;;;;4953675;29;20601;-76
2023/04/02 01:33:35;;;;;;;4.97;1.00;;;17.90;99.90;;;;;;4946062;29;20288;-77
2023/04/02 01:36:13;;;;;;;4.95;0.93;;;17.90;99.90;;;;;;4955082;29;20656;-76
2023/04/02 01:38:50;;;;;;;8.05;0.95;;;18.00;99.90;;;;;;4954039;29;20557;-78
2023/04/02 01:41:26;;;;;;;5.80;0.95;;;18.00;99.90;;;;;;4955228;29;20211;-77
2023/04/02 01:44:04;;;;;;;9.07;1.45;;;18.10;99.90;;;;;;4953263;29;20664;-77
2023/04/02 01:46:41;;;;;;;8.70;0.80;;;18.00;99.90;;;;;;4955057;29;20208;-76
2023/04/02 01:49:17;;;;;;;9.25;1.00;;;18.00;99.90;;;;;;4950512;29;20200;-76
2023/04/02 01:51:52;;;;;;;7.45;0.82;;;18.00;99.90;;;;;;4952445;28;20675;-77
2023/04/02 01:54:24;;;;;;;5.72;1.00;;;18.00;99.90;;;;;;4948185;29;20204;-78
2023/04/02 01:56:57;;;;;;;5.22;0.70;;;18.10;99.90;;;;;;4945463;28;20293;-76
2023/04/02 01:59:32;;;;;;;5.10;0.73;;;18.10;99.90;;;;;;4954295;29;20212;-77
2023/04/02 02:02:08;;;;;;;5.93;1.08;;;18.20;99.90;;;;;;4953506;29;20251;-77
2023/04/02 02:04:39;;;;;;;6.43;0.98;;;18.20;99.90;;;;;;4953715;28;20228;-77
2023/04/02 02:07:16;;;;;;;8.15;1.10;;;18.30;99.90;;;;;;4954707;28;20204;-76
2023/04/02 02:09:48;;;;;;;5.30;1.23;;;18.40;99.90;;;;;;4951581;28;20201;-77
2023/04/02 02:12:19;;;;;;;4.85;0.98;;;18.50;99.90;;;;;;4951394;29;20281;-78
2023/04/02 02:14:52;;;;;;;4.35;0.85;;;18.60;99.90;;;;;;4942816;29;20228;-77
2023/04/02 02:17:33;;;;;;;5.85;1.25;;;18.60;99.90;;;;;;4955753;29;20267;-77
2023/04/02 02:20:09;;;;;;;5.68;1.05;;;18.70;99.90;;;;;;4957931;29;20211;-77
2023/04/02 02:22:42;;;;;;;7.25;1.20;;;18.70;99.90;;;;;;4954791;29;20197;-79
2023/04/02 02:25:17;;;;;;;10.60;1.23;;;18.80;99.90;;;;;;4953809;29;20203;-77
2023/04/02 02:27:58;;;;;;;7.15;1.00;;;18.90;99.90;;;;;;4954933;29;20200;-77
2023/04/02 02:30:34;;;;;;;5.25;1.02;;;19.00;99.90;;;;;;4957528;29;20197;-79
2023/04/02 02:33:17;;;;;;;6.07;0.95;;;19.10;99.90;;;;;;4957859;29;20299;-79
2023/04/02 02:35:56;;;;;;;8.80;1.15;;;19.20;99.90;;;;;;4957387;29;20207;-77
2023/04/02 02:38:50;;;;;;;6.55;0.88;;;19.40;99.90;;;;;;4957039;29;20276;-77
2023/04/02 02:41:29;;;;;;;5.47;0.90;;;19.60;99.90;;;;;;4944245;29;20193;-78
2023/04/02 02:44:08;;;;;;;4.38;0.80;;;19.70;99.90;;;;;;4958054;28;20198;-81
2023/04/02 02:46:42;;;;;;;10.80;1.02;;;19.80;99.90;;;;;;4956380;29;20217;-78
2023/04/02 02:49:18;;;;;;;9.05;0.90;;;19.90;99.90;;;;;;4958375;29;20193;-78
2023/04/02 02:51:54;;;;;;;4.10;0.75;;;19.90;99.90;;;;;;4956905;29;20201;-77
2023/04/02 02:54:25;;;;;;;3.45;0.80;;;19.80;99.90;;;;;;4955456;29;20205;-78
2023/04/02 02:56:59;;;;;;;4.15;0.90;;;19.80;99.90;;;;;;4951242;29;20239;-80
2023/04/02 02:59:31;;;;;;;5.28;0.93;;;19.80;99.90;;;;;;4957786;29;20672;-77
2023/04/02 03:02:04;;;;;;;5.63;1.02;;;19.80;99.90;;;;;;4949788;29;20209;-84
2023/04/02 03:04:37;;;;;;;4.00;0.55;;;19.70;99.90;;;;;;4955083;28;20602;-76
2023/04/02 03:07:11;;;;;;;3.88;0.90;;;19.40;99.90;;;;;;4952913;29;20664;-79
2023/04/02 03:09:48;;;;;;;4.30;0.80;;;18.90;99.90;;;;;;4951745;29;20233;-80
2023/04/02 03:12:31;;;;;;;5.10;0.70;;;18.50;99.90;;;;;;4950057;29;20565;-79
2023/04/02 03:15:07;;;;;;;5.30;0.80;;;18.00;99.90;;;;;;4951268;29;20216;-80
2023/04/02 03:17:41;;;;;;;6.47;0.60;;;17.70;99.90;;;;;;4955377;29;20243;-79
2023/04/02 03:20:21;;;;;;;5.05;0.93;;;17.20;99.90;;;;;;4954550;29;20208;-75
2023/04/02 03:22:59;;;;;;;2.30;0.40;;;17.10;99.90;;;;;;4955454;29;20199;-76
2023/04/02 03:25:36;;;;;;;2.03;0.40;;;17.10;99.90;;;;;;4952962;28;20656;-76
2023/04/02 03:28:13;;;;;;;2.83;0.50;;;17.00;99.90;;;;;;4954237;29;20201;-77
2023/04/02 03:30:48;;;;;;;0.50;0.30;;;17.00;99.90;;;;;;4953821;29;20204;-79
2023/04/02 03:33:26;;;;;;;0.73;0.30;;;17.10;99.90;;;;;;4952605;29;20192;-76
2023/04/02 03:36:06;;;;;;;3.03;0.70;;;17.10;99.90;;;;;;4951899;29;20205;-76
2023/04/02 03:38:43;;;;;;;2.58;0.60;;;17.10;99.90;;;;;;4951375;29;20229;-79
2023/04/02 03:41:20;;;;;;;3.20;0.60;;;17.20;99.90;;;;;;4956450;29;20201;-76
2023/04/02 03:43:54;;;;;;;3.50;0.98;;;17.20;99.90;;;;;;4954138;29;20205;-79
2023/04/02 03:46:34;;;;;;;4.70;1.02;;;17.20;99.90;;;;;;4949389;29;20202;-76
2023/04/02 03:49:10;;;;;;;3.60;0.75;;;17.20;99.90;;;;;;4948918;29;20205;-80
2023/04/02 03:51:54;;;;;;;2.80;0.80;;;17.20;99.90;;;;;;4953099;29;20192;-78
2023/04/02 03:54:26;;;;;;;4.78;0.90;;;17.20;99.90;;;;;;4954197;29;20217;-80
2023/04/02 03:56:59;;;;;;;3.45;0.60;;;17.20;99.90;;;;;;4949561;29;20552;-79
2023/04/02 03:59:38;;;;;;;1.75;0.60;;;17.10;99.90;;;;;;4953317;29;20197;-80
2023/04/02 04:02:21;;;;;;;3.97;0.75;;;17.10;99.90;;;;;;4950750;29;20231;-80
2023/04/02 04:04:56;;;;;;;4.15;0.70;;;17.10;99.90;;;;;;4937994;29;20245;-80
2023/04/02 04:07:34;;;;;;;3.00;0.60;;;17.10;99.90;;;;;;4931618;29;20208;-82
2023/04/02 04:10:09;;;;;;;2.50;0.90;;;17.10;99.90;;;;;;4935225;29;20205;-83
2023/04/02 04:12:45;;;;;;;3.72;0.90;;;17.10;99.90;;;;;;4931276;29;20198;-84
2023/04/02 04:15:22;;;;;;;2.47;0.60;;;17.20;99.90;;;;;;4933187;29;20205;-78
2023/04/02 04:18:00;;;;;;;3.65;0.70;;;17.20;99.90;;;;;;4932546;29;20692;-87
2023/04/02 04:20:38;;;;;;;2.20;0.60;;;17.30;99.90;;;;;;4934162;29;20869;-79
2023/04/02 04:23:24;;;;;;;3.17;0.63;;;17.50;99.90;;;;;;4935936;29;20224;-77
2023/04/02 04:26:04;;;;;;;2.25;0.80;;;17.70;99.90;;;;;;4929766;29;20205;-82
2023/04/02 04:28:44;;;;;;;3.05;0.77;;;17.80;99.90;;;;;;4936128;29;20216;-77
2023/04/02 04:31:21;;;;;;;4.18;0.90;;;17.80;99.90;;;;;;4930594;29;20201;-85
2023/04/02 04:34:04;;;;;;;5.18;0.90;;;17.80;99.90;;;;;;4928645;29;20225;-79
2023/04/02 04:36:52;;;;;;;4.13;0.90;;;17.90;99.90;;;;;;4927806;29;20565;-88
2023/04/02 04:39:33;;;;;;;2.60;0.65;;;18.00;99.90;;;;;;4933372;29;20241;-77
2023/04/02 04:42:07;;;;;;;4.35;0.88;;;17.90;99.90;;;;;;4933026;29;20214;-79
2023/04/02 04:44:46;;;;;;;4.90;1.10;;;17.90;99.90;;;;;;4916664;29;20653;-84
2023/04/02 04:47:23;;;;;;;4.80;0.85;;;17.80;99.90;;;;;;4914209;29;20684;-84
2023/04/02 04:49:58;;;;;;;3.60;0.90;;;17.60;99.90;;;;;;4921098;29;20293;-87
2023/04/02 04:52:31;;;;;;;3.63;0.77;;;17.50;99.90;;;;;;4935608;29;20197;-86
2023/04/02 04:55:21;;;;;;;2.47;0.55;;;17.40;99.90;;;;;;4935178;29;20198;-84
2023/04/02 04:57:57;;;;;;;2.22;0.43;;;17.40;99.90;;;;;;4929605;29;20226;-89
2023/04/02 05:00:49;;;;;;;2.80;0.60;;;17.30;99.90;;;;;;4928951;29;20209;-85
2023/04/02 05:03:34;;;;;;;2.03;0.50;;;17.20;99.90;;;;;;4938166;28;20225;-89
2023/04/02 05:06:15;;;;;;;2.92;0.50;;;17.10;99.90;;;;;;4954522;28;20204;-92
2023/04/02 05:08:53;;;;;;;2.83;0.50;;;17.10;99.90;;;;;;4955667;29;20291;-94
2023/04/02 05:11:33;;;;;;;3.55;0.70;;;17.00;99.90;;;;;;4955540;29;20283;-94
2023/04/02 05:14:07;;;;;;;2.40;0.60;;;17.10;99.90;;;;;;4955818;29;20201;-89
2023/04/02 05:16:42;;;;;;;3.25;0.50;;;17.10;99.90;;;;;;4950062;29;20212;-81
2023/04/02 05:19:18;;;;;;;2.65;0.80;;;17.10;99.90;;;;;;4949265;29;20589;-86
2023/04/02 05:21:56;;;;;;;4.53;0.95;;;17.20;99.90;;;;;;4951412;29;20204;-90
2023/04/02 05:24:43;;;;;;;1.50;0.50;;;17.30;99.90;;;;;;4951631;29;20675;-78
2023/04/02 05:27:26;;;;;;;3.60;0.70;;;17.30;99.90;;;;;;4955217;29;20204;-81
2023/04/02 05:30:02;;;;;;;2.20;0.60;;;17.40;99.90;;;;;;4955218;29;20579;-85
2023/04/02 05:32:37;;;;;;;2.67;0.70;;;17.40;99.90;;;;;;4953439;29;20597;-84
2023/04/02 05:35:16;;;;;;;2.28;0.60;;;17.40;99.90;;;;;;4952546;29;20212;-88
2023/04/02 05:37:48;;;;;;;6.15;0.80;;;17.40;99.90;;;;;;4955463;29;20213;-83
2023/04/02 05:40:25;;;;;;;3.30;1.20;;;17.40;99.90;;;;;;4954118;28;20208;-85
2023/04/02 05:43:00;;;;;;;3.80;1.00;;;17.40;99.90;;;;;;4947675;28;20213;-87
2023/04/02 05:45:34;;;;;;;4.22;0.90;;;17.50;99.90;;;;;;4954261;29;20571;-91
2023/04/02 05:48:13;;;;;;;3.08;0.90;;;17.50;99.90;;;;;;4952969;28;20206;-89
2023/04/02 05:50:48;;;;;;;7.35;1.15;;;17.50;99.90;;;;;;4947482;29;20199;-89
2023/04/02 05:53:24;;;;;;;3.20;0.73;;;17.50;99.90;;;;;;4954583;29;20277;-91
2023/04/02 05:56:03;;;;;;;4.47;0.80;;;17.60;99.90;;;;;;4955074;29;20193;-78
2023/04/02 05:58:47;;;;;;;5.28;1.20;;;17.60;99.90;;;;;;4955326;29;20231;-79
2023/04/02 06:01:48;;;;;;;;;;;;;;;;;;;;;
2023/04/02 06:04:25;;;;;;;4.97;1.00;;;17.60;99.90;;;;;;4949108;28;20238;-87
2023/04/02 06:07:03;;;;;;;5.68;0.90;;;17.60;99.90;;;;;;4954985;29;20208;-86
2023/04/02 06:09:41;;;;;;;3.10;0.82;;;17.50;99.90;;;;;;4955486;29;20196;-83
2023/04/02 06:12:23;;;;;;;4.82;0.93;;;17.50;99.90;;;;;;4954394;29;20197;-86
2023/04/02 06:14:56;;;;;;;6.15;0.90;;;17.50;99.90;;;;;;4953481;29;20292;-84
2023/04/02 06:17:28;;;;;;;6.03;1.20;;;17.40;99.90;;;;;;4952141;29;20201;-86
2023/04/02 06:20:01;;;;;;;4.97;1.08;;;17.40;99.90;;;;;;4953841;29;20209;-76
2023/04/02 06:22:37;;;;;;;4.97;1.00;;;17.50;99.90;;;;;;4954469;29;20204;-85
2023/04/02 06:25:15;;;;;;;3.97;0.85;;;17.40;99.90;;;;;;4954865;29;20200;-83
2023/04/02 06:27:50;;;;;;;5.18;1.15;;;17.60;99.90;;;;;;4953880;29;20203;-79
2023/04/02 06:30:26;;;;;;;4.75;0.90;;;17.70;99.90;;;;;;4952273;29;20197;-83
2023/04/02 06:33:02;;;;;;;6.93;1.00;;;17.70;99.90;;;;;;4954612;29;20200;-81
2023/04/02 06:35:34;;;;;;;5.93;1.15;;;17.70;99.90;;;;;;4953509;29;20196;-83
2023/04/02 06:38:08;;;;;;;3.70;1.00;;;17.80;99.90;;;;;;4953122;29;20228;-80
2023/04/02 06:40:44;;;;;;;3.63;1.10;;;17.80;99.90;;;;;;4953265;29;20192;-78
2023/04/02 06:43:22;;;;;;;4.25;1.00;;;17.90;99.90;;;;;;4954043;29;20562;-80
2023/04/02 06:45:58;;;;;;;5.20;0.90;;;17.90;99.90;;;;;;4935324;29;20194;-82
2023/04/02 06:48:31;;;;;;;4.75;1.10;;;17.80;99.90;;;;;;4936352;29;20202;-75
2023/04/02 06:51:08;;;;;;;3.00;0.60;;;17.80;99.90;;;;;;4951888;29;20235;-77
2023/04/02 06:53:41;;;;;;;4.78;0.82;;;17.70;99.90;;;;;;4947149;29;20675;-78
2023/04/02 06:56:21;;;;;;;2.45;0.70;;;17.70;99.90;;;;;;4946223;28;20198;-79
2023/04/02 06:58:52;;;;;;;3.28;1.02;;;17.70;99.90;;;;;;4949008;29;20691;-77
2023/04/02 07:01:29;;;;;;;6.13;0.95;;;17.70;99.90;;;;;;4950945;28;20237;-79
2023/04/02 07:04:01;;;;;;;4.00;0.75;;;17.70;99.90;;;;;;4955750;28;20629;-76
2023/04/02 07:06:32;;;;;;;2.58;0.85;;;17.70;99.90;;;;;;4956814;29;20204;-81
2023/04/02 07:09:03;;;;;;;4.40;0.90;;;17.70;99.90;;;;;;4955202;29;20209;-77
2023/04/02 07:11:34;;;;;;;4.07;0.90;;;17.70;99.90;;;;;;4954984;29;20217;-82
2023/04/02 07:14:05;;;;;;;4.47;1.05;;;17.70;99.90;;;;;;4944580;29;20565;-82
2023/04/02 07:16:39;;;;;;;2.63;0.73;;;17.70;99.90;;;;;;4956147;29;20205;-82
2023/04/02 07:19:17;;;;;;;3.28;1.00;;;17.80;99.90;;;;;;4955728;29;20244;-83
2023/04/02 07:21:48;;;;;;;4.38;1.00;;;17.70;99.90;;;;;;4944009;29;20298;-83
2023/04/02 07:24:19;;;;;;;3.42;0.88;;;17.70;99.90;;;;;;4955389;29;20207;-84
2023/04/02 07:26:50;;;;;;;5.63;1.23;;;17.70;99.90;;;;;;4954016;29;20672;-85
2023/04/02 07:29:21;;;;;;;2.70;0.77;;;17.70;99.90;;;;;;4955795;29;20205;-79
2023/04/02 07:31:57;;;;;;;5.38;1.08;;;17.70;99.90;;;;;;4954417;29;20561;-77
2023/04/02 07:34:28;;;;;;;3.45;1.15;;;17.70;99.90;;;;;;4957446;29;20204;-86
2023/04/02 07:37:01;;;;;;;3.47;1.02;;;17.70;99.90;;;;;;4954725;29;20212;-86
2023/04/02 07:39:32;;;;;;;6.30;1.38;;;17.70;99.90;;;;;;4953285;29;20224;-87
2023/04/02 07:42:04;;;;;;;7.03;1.40;;;17.70;99.90;;;;;;4953863;29;20205;-87
2023/04/02 07:44:38;;;;;;;5.22;1.45;;;17.70;99.90;;;;;;4953811;29;20552;-81
2023/04/02 07:47:11;;;;;;;7.78;1.50;;;17.60;99.90;;;;;;4956442;29;20570;-88
2023/04/02 07:49:42;;;;;;;8.05;1.75;;;17.60;99.90;;;;;;4947340;29;20205;-91
2023/04/02 07:52:16;;;;;;;6.25;1.70;;;17.60;99.90;;;;;;4938271;29;20272;-82
2023/04/02 07:54:47;;;;;;;7.80;1.73;;;17.60;99.90;;;;;;4944440;29;20213;-93
2023/04/02 07:57:18;;;;;;;5.85;1.75;;;17.60;99.90;;;;;;4956574;28;20232;-85
2023/04/02 07:59:50;;;;;;;7.55;1.75;;;17.60;99.90;;;;;;4956140;28;20221;-78
2023/04/02 08:02:26;;;;;;;3.45;1.25;;;17.60;99.90;;;;;;4946294;28;20225;-88
2023/04/02 08:04:57;;;;;;;6.35;1.50;;;17.60;99.90;;;;;;4940578;29;20243;-78
2023/04/02 08:07:30;;;;;;;6.93;1.38;;;17.60;99.90;;;;;;4947935;29;20684;-82
2023/04/02 08:10:01;;;;;;;3.65;1.20;;;17.60;99.90;;;;;;4953447;29;20205;-78
2023/04/02 08:12:32;;;;;;;6.47;1.45;;;17.60;99.90;;;;;;4938228;29;20217;-79
2023/04/02 08:15:04;;;;;;;6.75;1.48;;;17.60;99.90;;;;;;4958605;28;20661;-82
2023/04/02 08:17:37;;;;;;;7.93;1.50;;;17.60;99.90;;;;;;4956218;29;20205;-79
2023/04/02 08:20:09;;;;;;;8.82;1.30;;;17.50;99.90;;;;;;4956690;28;20229;-90
2023/04/02 08:22:41;;;;;;;2.97;1.02;;;17.40;99.90;;;;;;4954369;28;20284;-84
2023/04/02 08:25:13;;;;;;;4.03;1.27;;;17.40;99.90;;;;;;4954707;29;20212;-93
2023/04/02 08:27:44;;;;;;;3.92;1.23;;;17.40;99.90;;;;;;4956732;29;20213;-77
2023/04/02 08:30:16;;;;;;;3.60;1.10;;;17.30;99.90;;;;;;4955453;29;20205;-77
2023/04/02 08:32:50;;;;;;;3.13;1.00;;;17.30;99.90;;;;;;4954645;28;20197;-88
2023/04/02 08:35:22;;;;;;;4.38;1.10;;;17.30;99.90;;;;;;4956582;29;20197;-78
2023/04/02 08:37:53;;;;;;;2.13;1.10;;;17.30;99.90;;;;;;4953126;28;20244;-86
2023/04/02 08:40:27;;;;;;;3.25;1.45;;;17.30;99.90;;;;;;4952191;29;20217;-80
2023/04/02 08:43:18;;;;;;;2.53;0.93;;;17.30;99.90;;;;;;4946996;29;20201;-77
2023/04/02 08:46:02;;;;;;;2.20;0.98;;;17.30;99.90;;;;;;4951925;29;20201;-86
2023/04/02 08:48:38;;;;;;;3.08;1.15;;;17.20;99.90;;;;;;4953480;29;20205;-77
2023/04/02 08:51:19;;;;;;;2.80;1.30;;;17.20;99.90;;;;;;4948356;28;20589;-77
2023/04/02 08:53:51;;;;;;;4.32;1.15;;;17.20;99.90;;;;;;4943497;29;20196;-87
2023/04/02 08:56:26;;;;;;;3.15;1.30;;;17.10;99.90;;;;;;4955057;29;20197;-79
2023/04/02 08:58:59;;;;;;;6.93;2.60;;;17.10;99.90;;;;;;4951943;29;20579;-77
2023/04/02 09:01:41;;;;;;;4.07;2.00;;;17.10;99.90;;;;;;4955257;28;20231;-77
2023/04/02 09:04:21;;;;;;;4.60;1.80;;;17.10;99.90;;;;;;4954911;29;20294;-77
2023/04/02 09:06:55;;;;;;;2.85;1.20;;;17.00;99.90;;;;;;4951288;29;20211;-77
2023/04/02 09:09:27;;;;;;;6.18;1.90;;;17.00;99.90;;;;;;4955480;29;20213;-86
2023/04/02 09:12:02;;;;;;;4.60;1.20;;;17.00;99.90;;;;;;4955782;29;20572;-76
2023/04/02 09:14:43;;;;;;;2.13;1.30;;;17.00;99.90;;;;;;4951377;29;20201;-76
2023/04/02 09:17:21;;;;;;;3.15;1.30;;;16.90;99.90;;;;;;4947343;29;20207;-77
2023/04/02 09:19:58;;;;;;;3.13;1.20;;;17.00;99.90;;;;;;4943639;29;20587;-83
2023/04/02 09:22:31;;;;;;;4.25;1.75;;;16.90;99.90;;;;;;4954221;29;20204;-79
2023/04/02 09:25:04;;;;;;;2.97;1.30;;;16.90;99.90;;;;;;4954078;28;20201;-76
2023/04/02 09:27:37;;;;;;;3.97;1.30;;;16.90;99.90;;;;;;4954017;29;20201;-89
2023/04/02 09:30:17;;;;;;;2.05;0.90;;;17.00;99.90;;;;;;4951215;29;20814;-76
2023/04/02 09:32:52;;;;;;;2.50;1.02;;;17.00;99.90;;;;;;4941580;29;20204;-77
2023/04/02 09:35:27;;;;;;;3.63;1.00;;;17.00;99.90;;;;;;4953402;28;20207;-77
2023/04/02 09:38:19;;;;;;;3.05;1.00;;;17.00;99.90;;;;;;4953694;29;20209;-84
2023/04/02 09:40:53;;;;;;;4.50;1.00;;;16.90;99.90;;;;;;4953080;28;20237;-77
2023/04/02 09:43:25;;;;;;;4.47;1.05;;;16.90;99.90;;;;;;4954459;29;20208;-79
2023/04/02 09:46:01;;;;;;;5.65;1.15;;;16.90;99.90;;;;;;4940519;28;20208;-79
2023/04/02 09:48:34;;;;;;;4.45;1.00;;;16.90;99.90;;;;;;4953950;29;20209;-78
2023/04/02 09:51:30;;;;;;;1.17;0.60;;;16.90;99.90;;;;;;4943301;29;20561;-76
2023/04/02 09:54:15;;;;;;;3.15;0.80;;;16.90;99.90;;;;;;4950724;29;20678;-77
2023/04/02 09:57:03;;;;;;;2.25;0.75;;;16.90;99.90;;;;;;4955195;29;20211;-79
2023/04/02 09:59:34;;;;;;;4.20;0.80;;;16.90;99.90;;;;;;4954118;29;20689;-76
2023/04/02 10:02:05;;;;;;;3.03;0.73;;;16.90;99.90;;;;;;4953394;28;20273;-83
2023/04/02 10:04:43;;;;;;;2.80;0.70;;;16.90;99.90;;;;;;4940122;29;20288;-78
2023/04/02 10:07:35;;;;;;;3.65;0.77;;;16.90;99.90;;;;;;4932038;29;20227;-87
2023/04/02 10:10:22;;;;;;;2.78;0.75;;;16.90;99.90;;;;;;4934243;29;20661;-81
2023/04/02 10:12:58;;;;;;;4.15;0.80;;;16.90;99.90;;;;;;4934807;29;20589;-86
2023/04/02 10:15:35;;;;;;;3.97;0.85;;;16.90;99.90;;;;;;4936386;29;20228;-82
2023/04/02 10:18:14;;;;;;;2.72;0.70;;;16.80;99.90;;;;;;4924514;29;20212;-78
2023/04/02 10:20:47;;;;;;;1.67;0.60;;;16.80;99.90;;;;;;4928792;29;20221;-81
2023/04/02 10:23:21;;;;;;;5.32;0.70;;;16.80;99.90;;;;;;4935215;29;20268;-87
2023/04/02 10:25:59;;;;;;;2.50;0.70;;;16.80;99.90;;;;;;4933578;29;20198;-81
2023/04/02 10:28:42;;;;;;;1.90;0.77;;;16.80;99.90;;;;;;4933829;29;20205;-81
2023/04/02 10:31:18;;;;;;;2.88;0.90;;;16.70;99.90;;;;;;4933234;29;20212;-84
2023/04/02 10:33:52;;;;;;;3.28;1.02;;;16.70;99.90;;;;;;4934614;29;20675;-75
2023/04/02 10:36:31;;;;;;;1.85;0.88;;;16.70;99.90;;;;;;4937692;29;20192;-86
2023/04/02 10:39:08;;;;;;;4.88;1.20;;;16.70;99.90;;;;;;4942600;29;20194;-81
2023/04/02 10:41:46;;;;;;;2.97;1.13;;;16.70;99.90;;;;;;4942872;29;20201;-86
2023/04/02 10:44:45;;;;;;;2.78;1.00;;;16.70;99.90;;;;;;4941024;29;20682;-76
2023/04/02 10:47:28;;;;;;;5.72;1.30;;;16.70;99.90;;;;;;4944439;29;20212;-82
2023/04/02 10:50:10;;;;;;;10.18;1.40;;;16.60;99.90;;;;;;4920450;29;20194;-83
2023/04/02 10:52:45;;;;;;;3.78;0.98;;;16.60;99.90;;;;;;4921673;29;20194;-76
2023/04/02 10:55:23;;;;;;;3.33;0.90;;;16.60;99.90;;;;;;4939016;29;20564;-86
2023/04/02 10:57:58;;;;;;;6.57;1.20;;;16.70;99.90;;;;;;4939055;29;20205;-76
2023/04/02 11:00:34;;;;;;;3.67;0.90;;;16.70;99.90;;;;;;4940817;29;20228;-76
2023/04/02 11:03:08;;;;;;;2.08;0.77;;;16.70;99.90;;;;;;4947086;28;20200;-76
2023/04/02 11:05:45;;;;;;;4.88;0.80;;;16.70;99.90;;;;;;4938816;29;20212;-76
2023/04/02 11:08:21;;;;;;;4.30;0.98;;;16.70;99.90;;;;;;4938878;29;20189;-78
2023/04/02 11:10:58;;;;;;;2.85;1.00;;;16.70;99.90;;;;;;4938840;29;20569;-79
2023/04/02 11:13:33;;;;;;;3.47;0.80;;;16.70;99.90;;;;;;4939129;29;20200;-82
2023/04/02 11:16:04;;;;;;;4.38;1.30;;;16.70;99.90;;;;;;4937596;29;20204;-77
2023/04/02 11:18:37;;;;;;;4.60;1.10;;;16.70;99.90;;;;;;4936566;29;20198;-85
2023/04/02 11:21:09;;;;;;;4.32;1.20;;;16.70;99.90;;;;;;4937394;29;20218;-77
2023/04/02 11:23:59;;;;;;;4.15;1.13;;;16.80;99.90;;;;;;4935669;29;20202;-78
2023/04/02 11:26:42;;;;;;;4.97;1.20;;;16.80;99.90;;;;;;4934121;29;20202;-79
2023/04/02 11:29:22;;;;;;;4.68;0.98;;;16.80;99.90;;;;;;4937622;29;20608;-85
2023/04/02 11:32:14;;;;;;;3.83;1.20;;;16.80;99.90;;;;;;4935657;29;20197;-77
2023/04/02 11:35:31;;;;;;;5.25;0.95;;;16.80;99.90;;;;;;4937977;29;20206;-83
2023/04/02 11:38:04;;;;;;;5.80;1.55;;;16.80;99.90;;;;;;4936241;29;20572;-85
2023/04/02 11:40:48;;;;;;;2.80;1.10;;;16.80;99.90;;;;;;4937998;29;20221;-76
2023/04/02 11:44:01;;;;;;;3.97;1.27;;;16.90;99.90;;;;;;4930853;29;20698;-86
2023/04/02 11:46:48;;;;;;;5.22;1.23;;;16.90;99.90;;;;;;4919383;29;20203;-76
2023/04/02 11:49:57;;;;;;;3.40;0.98;;;16.90;99.90;;;;;;4932054;29;20201;-76
2023/04/02 11:52:32;;;;;;;3.38;1.10;;;16.90;99.90;;;;;;4938036;29;20206;-75
2023/04/02 11:55:26;;;;;;;3.75;1.10;;;16.90;99.90;;;;;;4937937;29;20209;-77
2023/04/02 11:58:39;;;;;;;6.25;1.13;;;16.90;99.90;;;;;;4935898;29;20293;-86
2023/04/02 12:01:37;;;;;;;3.75;1.15;;;16.90;99.90;;;;;;4936575;29;20233;-75
2023/04/02 12:04:36;;;;;;;6.57;1.17;;;16.90;99.90;;;;;;4942003;29;20771;-75
2023/04/02 12:07:51;;;;;;;5.72;0.95;;;16.90;99.90;;;;;;4947558;29;20205;-77
2023/04/02 12:10:23;;;;;;;3.88;0.98;;;16.80;99.90;;;;;;4949269;29;20196;-76
2023/04/02 12:12:54;;;;;;;3.35;0.70;;;16.80;99.90;;;;;;4955334;29;20197;-83
2023/04/02 12:15:45;;;;;;;2.03;0.98;;;16.80;99.90;;;;;;4955657;29;20197;-76
2023/04/02 12:18:21;;;;;;;7.22;0.85;;;16.80;99.90;;;;;;4952544;29;20197;-76
2023/04/02 12:20:54;;;;;;;4.97;0.82;;;16.80;99.90;;;;;;4946486;29;20229;-78
2023/04/02 12:23:30;;;;;;;2.45;0.70;;;16.80;99.90;;;;;;4950865;29;20211;-78
2023/04/02 12:26:02;;;;;;;1.95;0.68;;;16.80;99.90;;;;;;4952650;29;20211;-76
2023/04/02 12:28:36;;;;;;;3.53;0.73;;;16.80;99.90;;;;;;4955933;29;20283;-77
2023/04/02 12:31:16;;;;;;;3.15;0.80;;;16.80;99.90;;;;;;4942797;29;20204;-82
2023/04/02 12:33:53;;;;;;;3.03;0.80;;;16.80;99.90;;;;;;4954477;29;20550;-77
2023/04/02 12:36:25;;;;;;;1.80;0.88;;;16.80;99.90;;;;;;4953245;29;20212;-76
2023/04/02 12:38:57;;;;;;;1.23;0.70;;;16.80;99.90;;;;;;4954818;28;20201;-76
2023/04/02 12:41:30;;;;;;;3.13;0.80;;;16.80;99.90;;;;;;4947181;29;20228;-76
2023/04/02 12:44:03;;;;;;;2.95;0.70;;;16.80;99.90;;;;;;4956288;29;20416;-75
2023/04/02 12:46:36;;;;;;;3.28;0.75;;;16.80;99.90;;;;;;4955986;29;20197;-81
2023/04/02 12:49:13;;;;;;;3.35;0.70;;;16.70;99.90;;;;;;4955994;29;20204;-81
2023/04/02 12:51:45;;;;;;;3.33;0.90;;;16.70;99.90;;;;;;4956117;29;20197;-84
2023/04/02 12:54:19;;;;;;;1.92;0.60;;;16.70;99.90;;;;;;4956133;29;20193;-85
2023/04/02 12:56:50;;;;;;;1.63;0.70;;;16.70;99.90;;;;;;4956309;29;20192;-80
2023/04/02 12:59:33;;;;;;;4.25;0.70;;;16.60;99.90;;;;;;4955368;28;20212;-76
2023/04/02 13:02:05;;;;;;;3.30;0.80;;;16.60;99.90;;;;;;4955735;28;20646;-76
2023/04/02 13:04:50;;;;;;;4.22;0.80;;;16.60;99.90;;;;;;4955070;29;20260;-75
2023/04/02 13:07:24;;;;;;;2.90;0.82;;;16.60;99.90;;;;;;4953065;29;20193;-77
2023/04/02 13:09:56;;;;;;;1.75;0.70;;;16.50;99.90;;;;;;4955265;29;20203;-85
2023/04/02 13:12:35;;;;;;;1.98;0.68;;;16.50;99.90;;;;;;4954980;29;20205;-83
2023/04/02 13:15:08;;;;;;;3.78;1.15;;;16.50;99.90;;;;;;4952248;29;20196;-76
2023/04/02 13:17:44;;;;;;;2.00;0.60;;;16.50;99.90;;;;;;4954857;29;20204;-76
2023/04/02 13:20:37;;;;;;;1.95;0.70;;;16.50;99.90;;;;;;4953884;29;20216;-76
2023/04/02 13:23:26;;;;;;;3.00;0.80;;;16.50;99.90;;;;;;4947295;29;20200;-78
2023/04/02 13:25:58;;;;;;;2.70;0.57;;;16.50;99.90;;;;;;4953984;29;20205;-75
2023/04/02 13:28:29;;;;;;;2.58;0.60;;;16.50;99.90;;;;;;4955162;29;20204;-75
2023/04/02 13:31:00;;;;;;;1.60;0.70;;;16.50;99.90;;;;;;4941743;29;20197;-75
2023/04/02 13:33:31;;;;;;;2.88;0.85;;;16.50;99.90;;;;;;4953379;29;20212;-84
2023/04/02 13:36:04;;;;;;;3.78;0.70;;;16.50;99.90;;;;;;4952486;29;20201;-76
2023/04/02 13:38:35;;;;;;;4.38;0.70;;;16.50;99.90;;;;;;4953217;29;20200;-80
2023/04/02 13:41:06;;;;;;;3.08;0.80;;;16.50;99.90;;;;;;4954401;29;20220;-76